Time;durP1;ratioP1;P1;durP2;ratioP2;P2;SDS_P1;SDS_P2;PMS_P1;PMS_P2;Temp;Humidity;BMP_temperature;BMP_pressure;BME280_temperature;BME280_humidity;BME280_pressure;Samples;Min_cycle;Max_cycle;Signal;HPM_P1;HPM_P2
2023/09/08 00:00:09;;;;;;;8.83;8.13;;;19.60;99.90;;;;;;5139958;27;20456;-42
2023/09/08 00:02:34;;;;;;;8.13;7.47;;;19.60;99.90;;;;;;5140247;27;20307;-38
2023/09/08 00:05:00;;;;;;;7.33;6.80;;;19.60;99.90;;;;;;5139786;27;20420;-37
2023/09/08 00:07:26;;;;;;;8.00;7.40;;;19.50;99.90;;;;;;5140080;27;20221;-39
2023/09/08 00:09:51;;;;;;;7.87;7.17;;;19.50;99.90;;;;;;5140405;27;20203;-40
2023/09/08 00:12:17;;;;;;;8.30;7.50;;;19.50;99.90;;;;;;5140309;27;20176;-36
2023/09/08 00:14:43;;;;;;;9.80;7.53;;;19.40;99.90;;;;;;5140546;27;20297;-37
2023/09/08 00:17:08;;;;;;;8.57;7.87;;;19.40;99.90;;;;;;5140502;27;20417;-37
2023/09/08 00:19:34;;;;;;;7.53;6.90;;;19.40;99.90;;;;;;5139322;27;20641;-37
2023/09/08 00:22:00;;;;;;;7.97;7.27;;;19.40;99.90;;;;;;5140870;27;20191;-38
2023/09/08 00:24:26;;;;;;;8.23;7.53;;;19.30;99.90;;;;;;5139948;27;20179;-38
2023/09/08 00:26:51;;;;;;;9.30;8.43;;;19.30;99.90;;;;;;5138008;27;20503;-38
2023/09/08 00:29:17;;;;;;;8.40;7.60;;;19.30;99.90;;;;;;5138243;27;20419;-39
2023/09/08 00:31:43;;;;;;;8.07;7.40;;;19.30;99.90;;;;;;5138475;27;20191;-42
2023/09/08 00:34:08;;;;;;;8.27;7.47;;;19.20;99.90;;;;;;5139211;27;20183;-39
2023/09/08 00:36:34;;;;;;;7.90;7.27;;;19.20;99.90;;;;;;5139054;27;20203;-40
2023/09/08 00:38:59;;;;;;;8.50;7.80;;;19.20;99.90;;;;;;5138409;27;20259;-40
2023/09/08 00:41:25;;;;;;;8.00;7.30;;;19.20;99.90;;;;;;5138110;27;20179;-43
2023/09/08 00:43:50;;;;;;;8.17;7.43;;;19.20;1.00;;;;;;5138585;27;20216;-36
2023/09/08 00:46:17;;;;;;;8.50;7.80;;;19.20;1.00;;;;;;5139902;27;20611;-39
2023/09/08 00:48:43;;;;;;;7.27;6.73;;;19.10;1.00;;;;;;5139539;27;20269;-40
2023/09/08 00:51:09;;;;;;;7.90;7.20;;;19.10;1.00;;;;;;5120383;27;20425;-37
2023/09/08 00:53:35;;;;;;;8.87;7.90;;;19.00;1.00;;;;;;5139830;27;20404;-37
2023/09/08 00:56:02;;;;;;;7.97;7.30;;;19.00;1.00;;;;;;5139929;27;20481;-38
2023/09/08 00:58:28;;;;;;;8.63;7.93;;;19.00;1.00;;;;;;5139788;27;20425;-37
2023/09/08 01:00:54;;;;;;;8.20;7.50;;;19.00;1.00;;;;;;5140075;27;20429;-37
2023/09/08 01:03:20;;;;;;;8.60;7.90;;;19.00;1.00;;;;;;5140281;27;20435;-39
2023/09/08 01:05:46;;;;;;;7.80;6.77;;;19.00;1.00;;;;;;5139714;27;20226;-44
2023/09/08 01:08:13;;;;;;;8.10;7.30;;;19.00;1.00;;;;;;5121746;27;20480;-36
2023/09/08 01:10:41;;;;;;;8.60;7.90;;;19.00;1.00;;;;;;5139179;27;20440;-38
2023/09/08 01:13:06;;;;;;;8.17;7.47;;;19.00;1.00;;;;;;5138447;27;20693;-39
2023/09/08 01:15:32;;;;;;;8.40;7.67;;;19.00;1.00;;;;;;5139654;27;20439;-37
2023/09/08 01:17:57;;;;;;;8.23;7.53;;;19.00;1.00;;;;;;5139522;27;20183;-37
2023/09/08 01:20:28;;;;;;;7.80;7.13;;;18.90;1.00;;;;;;5138463;27;20209;-38
2023/09/08 01:23:19;;;;;;;8.40;7.70;;;18.90;1.00;;;;;;5120157;27;20559;-42
2023/09/08 01:25:52;;;;;;;8.27;7.57;;;18.90;1.00;;;;;;5123605;27;20479;-38
2023/09/08 01:28:19;;;;;;;8.13;7.20;;;18.90;1.00;;;;;;5139502;27;20507;-37
2023/09/08 01:30:45;;;;;;;7.87;7.27;;;18.80;1.00;;;;;;5139614;27;20477;-38
2023/09/08 01:33:11;;;;;;;8.80;8.00;;;18.80;1.00;;;;;;5104225;27;20425;-37
2023/09/08 01:35:37;;;;;;;8.10;7.50;;;18.80;1.00;;;;;;5120941;27;20569;-37
2023/09/08 01:38:02;;;;;;;7.83;7.23;;;18.80;1.00;;;;;;5138048;27;20429;-37
2023/09/08 01:40:28;;;;;;;8.07;7.30;;;18.80;1.00;;;;;;5138744;27;20216;-38
2023/09/08 01:42:54;;;;;;;8.10;7.30;;;18.80;1.00;;;;;;5139310;27;20809;-37
2023/09/08 01:45:19;;;;;;;6.97;6.27;;;18.70;1.00;;;;;;5138557;27;20702;-39
2023/09/08 01:47:45;;;;;;;8.53;7.83;;;18.70;1.00;;;;;;5139350;27;20459;-38
2023/09/08 01:50:10;;;;;;;8.50;7.70;;;18.70;1.00;;;;;;5139231;27;20183;-36
2023/09/08 01:52:36;;;;;;;9.10;8.20;;;18.70;1.00;;;;;;5138602;27;20540;-37
2023/09/08 01:55:02;;;;;;;7.70;7.10;;;18.70;1.00;;;;;;5138779;27;20195;-39
2023/09/08 01:57:27;;;;;;;8.30;7.53;;;18.70;1.00;;;;;;5138912;27;20437;-37
2023/09/08 01:59:53;;;;;;;9.13;8.23;;;18.70;1.00;;;;;;5139107;27;20262;-38
2023/09/08 02:02:18;;;;;;;8.23;7.30;;;18.60;1.00;;;;;;5119783;27;20194;-38
2023/09/08 02:04:44;;;;;;;7.40;6.70;;;18.60;1.00;;;;;;5138609;27;20498;-38
2023/09/08 02:07:10;;;;;;;8.83;8.13;;;18.60;1.00;;;;;;5138595;27;20550;-37
2023/09/08 02:09:38;;;;;;;8.00;7.30;;;18.60;1.00;;;;;;5137620;27;20467;-43
2023/09/08 02:12:04;;;;;;;8.33;7.63;;;18.60;1.00;;;;;;5138065;27;20575;-40
2023/09/08 02:14:30;;;;;;;8.80;8.00;;;18.50;72.80;;;;;;5137544;27;20449;-38
2023/09/08 02:16:56;;;;;;;7.80;6.93;;;18.50;99.90;;;;;;5138059;27;20474;-37
2023/09/08 02:19:22;;;;;;;7.80;7.10;;;18.50;99.90;;;;;;5138328;27;20206;-38
2023/09/08 02:21:47;;;;;;;8.90;8.10;;;18.50;99.90;;;;;;5138835;27;20671;-37
2023/09/08 02:24:13;;;;;;;7.43;6.63;;;18.50;99.90;;;;;;5138125;27;20425;-37
2023/09/08 02:26:39;;;;;;;7.90;7.20;;;18.40;99.90;;;;;;5138469;27;20461;-39
2023/09/08 02:29:05;;;;;;;7.90;7.17;;;18.40;99.90;;;;;;5138405;27;20408;-37
2023/09/08 02:31:31;;;;;;;7.83;7.23;;;18.40;99.90;;;;;;5138170;27;20476;-36
2023/09/08 02:33:56;;;;;;;11.33;7.60;;;18.40;99.90;;;;;;5137241;27;20259;-42
2023/09/08 02:36:25;;;;;;;8.17;7.47;;;18.40;99.90;;;;;;5136903;27;20209;-37
2023/09/08 02:38:57;;;;;;;10.33;6.93;;;18.40;93.70;;;;;;5137293;27;20248;-39
2023/09/08 02:41:23;;;;;;;8.37;7.70;;;18.40;99.90;;;;;;5137910;27;20449;-38
2023/09/08 02:43:49;;;;;;;7.57;6.97;;;18.40;99.90;;;;;;5138125;27;20457;-41
2023/09/08 02:46:15;;;;;;;7.83;7.20;;;18.40;96.20;;;;;;5137498;27;20565;-38
2023/09/08 02:55:04;;;;;;;7.10;6.53;;;18.40;8.20;;;;;;5134691;27;20478;-40
2023/09/08 02:57:30;;;;;;;8.93;8.00;;;18.30;36.10;;;;;;5137342;27;20534;-36
2023/09/08 02:59:56;;;;;;;8.70;7.40;;;18.30;58.90;;;;;;5136319;27;20179;-37
2023/09/08 03:02:24;;;;;;;8.30;7.50;;;18.30;38.50;;;;;;5137278;27;20183;-38
2023/09/08 03:04:50;;;;;;;7.37;6.77;;;18.30;44.70;;;;;;5137465;27;20424;-41
2023/09/08 03:07:15;;;;;;;8.07;7.37;;;18.30;53.10;;;;;;5137043;27;20572;-36
2023/09/08 03:09:41;;;;;;;8.50;7.80;;;18.30;99.90;;;;;;5136500;27;20429;-37
2023/09/08 03:12:07;;;;;;;8.10;7.30;;;18.30;99.90;;;;;;5136894;27;20198;-40
2023/09/08 03:14:32;;;;;;;8.50;7.80;;;18.30;75.80;;;;;;5136161;27;20571;-37
2023/09/08 03:16:58;;;;;;;7.93;7.27;;;18.20;55.50;;;;;;5136907;27;20259;-36
2023/09/08 03:19:24;;;;;;;7.97;7.27;;;18.20;99.90;;;;;;5136805;28;20175;-37
2023/09/08 03:21:49;;;;;;;8.03;7.33;;;18.20;99.90;;;;;;5137327;28;20178;-36
2023/09/08 03:24:15;;;;;;;7.77;7.07;;;18.20;99.90;;;;;;5136650;28;20182;-37
2023/09/08 03:26:41;;;;;;;8.03;7.33;;;18.20;99.90;;;;;;5137132;28;20267;-37
2023/09/08 03:29:06;;;;;;;7.03;6.43;;;18.20;99.90;;;;;;5136009;28;20171;-36
2023/09/08 03:31:32;;;;;;;10.30;7.03;;;18.10;99.90;;;;;;5136639;28;20224;-37
2023/09/08 03:33:58;;;;;;;8.70;7.97;;;18.20;99.90;;;;;;5137343;28;20445;-37
2023/09/08 03:36:24;;;;;;;7.60;6.90;;;18.10;99.90;;;;;;5136876;28;20202;-41
2023/09/08 03:38:50;;;;;;;8.50;7.80;;;18.10;99.90;;;;;;5136699;28;20167;-38
2023/09/08 03:41:15;;;;;;;8.70;7.90;;;18.10;99.90;;;;;;5137276;28;20485;-38
2023/09/08 03:43:41;;;;;;;7.90;7.20;;;18.10;99.90;;;;;;5136942;28;20629;-37
2023/09/08 03:46:07;;;;;;;7.90;7.20;;;18.00;99.90;;;;;;5136874;28;20230;-40
2023/09/08 03:48:32;;;;;;;7.60;6.90;;;18.00;99.90;;;;;;5136060;28;20179;-38
2023/09/08 03:50:59;;;;;;;7.63;6.93;;;18.00;99.90;;;;;;5136388;28;20251;-37
2023/09/08 03:53:24;;;;;;;8.00;7.30;;;17.90;99.90;;;;;;5136791;28;20175;-37
2023/09/08 03:55:50;;;;;;;7.53;6.90;;;17.90;99.90;;;;;;5118198;28;20476;-42
2023/09/08 03:58:16;;;;;;;8.30;7.60;;;17.90;95.90;;;;;;5137347;28;20198;-37
2023/09/08 04:00:42;;;;;;;8.40;7.70;;;17.90;85.60;;;;;;5136668;28;20190;-37
2023/09/08 04:03:08;;;;;;;8.03;7.30;;;17.90;99.90;;;;;;5136356;28;20175;-37
2023/09/08 04:05:34;;;;;;;8.40;7.70;;;17.90;99.90;;;;;;5137120;28;20504;-41
2023/09/08 04:07:59;;;;;;;7.90;7.20;;;17.90;99.90;;;;;;5136394;28;20494;-37
2023/09/08 04:10:25;;;;;;;8.40;7.70;;;17.90;99.90;;;;;;5135929;28;20424;-40
2023/09/08 04:12:51;;;;;;;7.30;6.70;;;17.90;99.90;;;;;;5136111;28;20199;-37
2023/09/08 04:15:17;;;;;;;7.47;6.87;;;17.90;99.90;;;;;;5136219;28;20524;-36
2023/09/08 04:17:42;;;;;;;7.87;7.17;;;17.90;99.90;;;;;;5135891;28;20279;-36
2023/09/08 04:20:08;;;;;;;7.40;6.70;;;17.90;99.90;;;;;;5135745;28;20171;-43
2023/09/08 04:22:34;;;;;;;7.50;6.83;;;17.90;99.90;;;;;;5134255;28;20537;-37
2023/09/08 04:25:01;;;;;;;8.13;7.43;;;17.90;99.90;;;;;;5134548;27;20428;-37
2023/09/08 04:27:26;;;;;;;7.90;7.20;;;17.90;99.90;;;;;;5140170;27;20416;-37
2023/09/08 04:29:52;;;;;;;9.17;7.90;;;17.90;99.90;;;;;;5139473;27;20416;-39
2023/09/08 04:32:18;;;;;;;8.07;7.37;;;17.90;99.90;;;;;;5138639;27;20269;-42
2023/09/08 04:34:44;;;;;;;7.80;7.10;;;17.90;99.90;;;;;;5138852;27;20186;-39
2023/09/08 04:37:09;;;;;;;8.00;7.30;;;17.90;99.90;;;;;;5139733;27;20591;-37
2023/09/08 04:39:36;;;;;;;7.27;6.63;;;17.90;99.90;;;;;;5139138;27;20647;-36
2023/09/08 04:42:03;;;;;;;7.10;6.50;;;17.90;99.90;;;;;;5139591;27;20790;-37
2023/09/08 04:44:29;;;;;;;7.33;6.73;;;17.90;99.90;;;;;;5139249;27;20396;-35
2023/09/08 04:46:55;;;;;;;8.00;7.40;;;17.80;99.90;;;;;;5138661;27;20488;-36
2023/09/08 04:49:20;;;;;;;7.60;7.00;;;17.80;1.00;;;;;;5138683;27;20432;-38
2023/09/08 04:51:46;;;;;;;7.63;6.93;;;17.80;1.00;;;;;;5137629;27;20255;-38
2023/09/08 04:54:12;;;;;;;8.80;8.00;;;17.80;1.00;;;;;;5134276;27;20199;-39
2023/09/08 04:56:39;;;;;;;7.57;6.87;;;17.80;1.00;;;;;;5136953;27;20211;-38
2023/09/08 04:59:05;;;;;;;8.53;7.83;;;17.80;1.00;;;;;;5136518;27;20422;-38
2023/09/08 05:01:32;;;;;;;7.57;6.97;;;17.80;1.00;;;;;;5139095;27;20424;-40
2023/09/08 05:04:00;;;;;;;9.10;8.30;;;17.80;1.00;;;;;;5137312;27;20244;-36
2023/09/08 05:06:26;;;;;;;7.63;7.00;;;17.80;1.00;;;;;;5137852;27;20409;-38
2023/09/08 05:08:52;;;;;;;8.43;7.70;;;17.80;1.00;;;;;;5137666;27;20420;-38
2023/09/08 05:11:19;;;;;;;8.23;7.43;;;17.80;1.00;;;;;;5136379;27;20179;-40
2023/09/08 05:13:45;;;;;;;8.47;7.27;;;17.80;1.00;;;;;;5137146;27;20452;-36
2023/09/08 05:16:11;;;;;;;8.80;8.00;;;17.80;1.00;;;;;;5136695;27;20571;-42
2023/09/08 05:18:41;;;;;;;8.40;7.70;;;17.90;1.00;;;;;;5137617;27;20481;-41
2023/09/08 05:21:07;;;;;;;8.57;7.87;;;17.90;1.00;;;;;;5136670;27;20742;-39
2023/09/08 05:23:33;;;;;;;7.80;7.20;;;17.90;1.00;;;;;;5136487;27;20420;-38
2023/09/08 05:25:59;;;;;;;8.40;7.70;;;17.80;1.00;;;;;;5138148;27;20519;-41
2023/09/08 05:28:25;;;;;;;8.20;7.50;;;17.80;1.00;;;;;;5118297;27;20429;-42
2023/09/08 05:30:51;;;;;;;8.17;7.47;;;17.80;1.00;;;;;;5137784;27;20620;-41
2023/09/08 05:33:17;;;;;;;8.80;8.00;;;17.80;1.00;;;;;;5136126;27;20274;-37
2023/09/08 05:35:44;;;;;;;8.87;8.00;;;17.80;1.00;;;;;;5135078;27;20460;-37
2023/09/08 05:38:09;;;;;;;8.80;8.00;;;17.90;1.00;;;;;;5135425;27;20186;-37
2023/09/08 05:40:35;;;;;;;9.13;8.27;;;17.90;1.00;;;;;;5135108;27;20809;-39
2023/09/08 05:43:02;;;;;;;8.43;7.73;;;18.00;99.90;;;;;;5136620;27;20226;-39
2023/09/08 05:45:27;;;;;;;9.60;8.60;;;18.00;99.90;;;;;;5137723;27;20478;-37
2023/09/08 05:47:53;;;;;;;9.27;8.37;;;18.10;99.90;;;;;;5137321;27;20428;-41
2023/09/08 05:50:19;;;;;;;8.60;7.90;;;18.10;99.90;;;;;;5137397;27;20194;-39
2023/09/08 05:52:44;;;;;;;8.10;7.40;;;18.20;99.90;;;;;;5136402;27;20175;-37
2023/09/08 05:55:10;;;;;;;9.73;8.77;;;18.30;99.90;;;;;;5135925;27;20464;-40
2023/09/08 05:57:36;;;;;;;8.57;7.87;;;18.30;99.90;;;;;;5133996;27;20210;-36
2023/09/08 06:00:04;;;;;;;8.80;8.10;;;18.40;99.90;;;;;;5132685;27;20187;-37
2023/09/08 06:02:30;;;;;;;8.97;7.93;;;18.50;99.90;;;;;;5133989;27;20420;-37
2023/09/08 06:04:56;;;;;;;8.60;7.90;;;18.60;99.90;;;;;;5132758;27;20420;-38
2023/09/08 06:07:22;;;;;;;9.27;8.40;;;18.70;99.90;;;;;;5133335;27;20638;-38
2023/09/08 06:09:47;;;;;;;9.83;8.93;;;18.80;99.90;;;;;;5135099;27;20573;-38
2023/09/08 06:12:13;;;;;;;9.07;8.33;;;18.90;99.90;;;;;;5135579;27;20384;-38
2023/09/08 06:14:39;;;;;;;8.93;8.10;;;19.00;99.90;;;;;;5134743;27;20198;-38
2023/09/08 06:17:04;;;;;;;9.07;8.27;;;19.10;99.90;;;;;;5128508;27;20214;-37
2023/09/08 06:19:30;;;;;;;9.10;8.30;;;19.30;24.10;;;;;;5136357;27;20187;-37
2023/09/08 06:21:55;;;;;;;9.03;8.13;;;19.50;1.00;;;;;;5135706;27;20452;-37
2023/09/08 06:24:21;;;;;;;8.20;7.50;;;19.70;1.00;;;;;;5135557;27;20539;-37
2023/09/08 06:26:47;;;;;;;9.53;8.63;;;20.00;99.90;;;;;;5134474;27;20183;-38
2023/09/08 06:29:12;;;;;;;8.10;7.40;;;20.20;99.90;;;;;;5134249;27;20232;-39
2023/09/08 06:31:38;;;;;;;8.37;7.43;;;20.40;64.80;;;;;;5134570;27;20198;-37
2023/09/08 06:34:03;;;;;;;9.60;8.80;;;20.60;1.00;;;;;;5133532;27;20433;-39
2023/09/08 06:36:29;;;;;;;9.63;8.83;;;20.70;1.00;;;;;;5133542;27;20246;-39
2023/09/08 06:38:55;;;;;;;8.93;8.03;;;20.80;1.00;;;;;;5133989;27;20193;-37
2023/09/08 06:41:20;;;;;;;9.13;8.40;;;20.90;1.00;;;;;;5134250;27;20299;-38
2023/09/08 06:43:46;;;;;;;9.67;8.77;;;21.00;1.00;;;;;;5135032;27;20179;-37
2023/09/08 06:46:11;;;;;;;9.70;8.80;;;21.00;1.00;;;;;;5134335;27;20270;-38
2023/09/08 06:48:37;;;;;;;9.30;8.50;;;21.10;1.00;;;;;;5133372;27;20268;-39
2023/09/08 06:51:03;;;;;;;9.97;9.07;;;21.20;1.00;;;;;;5132003;27;20386;-40
2023/09/08 06:53:28;;;;;;;12.13;10.17;;;21.30;1.00;;;;;;5134711;27;20491;-36
2023/09/08 06:55:54;;;;;;;10.30;9.50;;;21.40;1.00;;;;;;5133615;27;20319;-37
2023/09/08 06:58:20;;;;;;;9.87;9.07;;;21.40;1.00;;;;;;5132938;27;20452;-39
2023/09/08 07:00:45;;;;;;;9.60;8.63;;;21.50;1.00;;;;;;5134025;27;20232;-38
2023/09/08 07:03:11;;;;;;;10.47;9.50;;;21.60;1.00;;;;;;5134676;27;20179;-37
2023/09/08 07:05:39;;;;;;;11.10;10.00;;;21.70;1.00;;;;;;5135397;27;20180;-38
2023/09/08 07:08:06;;;;;;;10.73;9.83;;;21.70;1.00;;;;;;5100566;27;20484;-37
2023/09/08 07:10:32;;;;;;;10.10;9.20;;;21.80;1.00;;;;;;5115815;27;20448;-37
2023/09/08 07:12:57;;;;;;;10.20;9.20;;;22.00;1.00;;;;;;5134330;27;20469;-37
2023/09/08 07:15:23;;;;;;;9.37;8.57;;;22.10;1.00;;;;;;5132575;27;20435;-39
2023/09/08 07:17:49;;;;;;;9.80;8.80;;;22.20;1.00;;;;;;5132418;27;20240;-37
2023/09/08 07:20:14;;;;;;;11.13;10.23;;;22.40;1.00;;;;;;5133583;28;20264;-36
2023/09/08 07:22:40;;;;;;;9.80;9.00;;;22.60;1.00;;;;;;5133394;28;20183;-37
2023/09/08 07:25:06;;;;;;;11.37;10.40;;;22.60;1.00;;;;;;5134273;28;20757;-39
2023/09/08 07:27:32;;;;;;;11.07;10.17;;;22.80;1.00;;;;;;5136198;28;20372;-37
2023/09/08 07:29:58;;;;;;;10.70;9.73;;;22.90;1.00;;;;;;5135899;28;20516;-39
2023/09/08 07:32:24;;;;;;;11.50;10.37;;;23.00;1.00;;;;;;5136301;28;20556;-39
2023/09/08 07:34:54;;;;;;;10.77;9.87;;;23.00;1.00;;;;;;5136047;28;20202;-37
2023/09/08 07:37:22;;;;;;;11.93;10.93;;;23.30;1.00;;;;;;5135668;28;20520;-36
2023/09/08 07:39:47;;;;;;;11.70;10.80;;;23.50;99.90;;;;;;5134400;28;20441;-38
2023/09/08 07:42:13;;;;;;;10.10;9.20;;;23.50;99.90;;;;;;5134346;28;20417;-36
2023/09/08 07:44:38;;;;;;;9.67;8.87;;;23.60;99.90;;;;;;5134723;28;20232;-37
2023/09/08 07:47:04;;;;;;;10.67;9.70;;;23.80;99.90;;;;;;5125631;28;20202;-39
2023/09/08 07:49:30;;;;;;;11.33;10.33;;;24.00;99.90;;;;;;5135315;28;20175;-37
2023/09/08 07:51:55;;;;;;;11.83;10.93;;;24.10;99.90;;;;;;5134593;28;20183;-38
2023/09/08 07:54:21;;;;;;;12.23;11.23;;;24.30;99.90;;;;;;5131367;28;20195;-37
2023/09/08 07:56:47;;;;;;;11.80;10.63;;;24.40;99.90;;;;;;5132708;28;20218;-38
2023/09/08 07:59:13;;;;;;;9.80;9.10;;;24.40;99.90;;;;;;5133230;27;20241;-38
2023/09/08 08:01:39;;;;;;;11.47;10.47;;;24.50;99.90;;;;;;5135540;27;20187;-36
2023/09/08 08:04:04;;;;;;;10.73;9.83;;;24.70;99.90;;;;;;5137056;27;20448;-37
2023/09/08 08:06:30;;;;;;;9.83;9.03;;;24.80;99.90;;;;;;5136883;27;20467;-37
2023/09/08 08:08:56;;;;;;;11.27;10.27;;;25.00;99.90;;;;;;5140606;27;20191;-37
2023/09/08 08:11:22;;;;;;;10.70;9.80;;;25.20;99.90;;;;;;5149381;27;20179;-37
2023/09/08 08:13:48;;;;;;;10.70;9.70;;;25.60;99.90;;;;;;5145019;27;20217;-38
2023/09/08 08:16:14;;;;;;;10.43;9.63;;;25.90;99.90;;;;;;5146274;27;20491;-37
2023/09/08 08:18:39;;;;;;;12.70;10.03;;;26.10;99.90;;;;;;5140107;27;20190;-37
2023/09/08 08:21:05;;;;;;;10.70;9.60;;;26.10;37.30;;;;;;5158411;27;20185;-38
2023/09/08 08:23:31;;;;;;;11.30;10.23;;;26.10;19.70;;;;;;5134526;27;20184;-39
2023/09/08 08:25:57;;;;;;;10.93;10.13;;;26.50;12.50;;;;;;5114742;28;20274;-38
2023/09/08 08:28:24;;;;;;;12.37;11.27;;;26.60;1.00;;;;;;5116739;27;20354;-38
2023/09/08 08:30:50;;;;;;;10.67;9.87;;;26.70;1.00;;;;;;5137384;27;20425;-36
2023/09/08 08:33:15;;;;;;;10.53;9.73;;;27.00;4.40;;;;;;5136241;27;20512;-38
2023/09/08 08:35:41;;;;;;;9.60;8.80;;;27.00;1.00;;;;;;5116424;27;20439;-37
2023/09/08 08:38:07;;;;;;;11.10;10.03;;;27.00;1.00;;;;;;5136196;27;20190;-38
2023/09/08 08:40:34;;;;;;;10.90;9.83;;;27.20;1.00;;;;;;5137168;27;20179;-38
2023/09/08 08:43:00;;;;;;;10.37;9.47;;;27.30;1.00;;;;;;5136559;27;20452;-40
2023/09/08 08:45:26;;;;;;;10.40;9.60;;;27.50;1.00;;;;;;5101424;27;20428;-39
2023/09/08 08:47:52;;;;;;;11.27;10.37;;;27.80;1.00;;;;;;5134913;27;20440;-39
2023/09/08 08:50:19;;;;;;;11.63;10.63;;;28.10;1.00;;;;;;5117992;27;20448;-38
2023/09/08 08:52:45;;;;;;;10.90;10.10;;;28.40;1.00;;;;;;5135685;27;20824;-36
2023/09/08 08:55:11;;;;;;;10.37;9.57;;;28.60;1.00;;;;;;5135914;27;20464;-39
2023/09/08 08:57:38;;;;;;;11.80;10.90;;;28.80;1.00;;;;;;5118697;27;20478;-37
2023/09/08 09:00:09;;;;;;;10.87;9.77;;;29.10;1.00;;;;;;5136522;27;20914;-38
2023/09/08 09:02:36;;;;;;;10.23;9.23;;;29.30;1.00;;;;;;5136689;27;20424;-38
2023/09/08 09:05:02;;;;;;;10.00;9.20;;;29.80;1.00;;;;;;5137129;27;20425;-38
2023/09/08 09:07:28;;;;;;;10.07;9.27;;;29.80;1.00;;;;;;5137765;27;20425;-40
2023/09/08 09:09:54;;;;;;;10.57;9.50;;;30.00;1.00;;;;;;5128998;27;20432;-37
2023/09/08 09:12:21;;;;;;;10.20;9.50;;;30.10;1.00;;;;;;5111788;27;20180;-38
2023/09/08 09:14:47;;;;;;;10.30;9.40;;;30.20;1.00;;;;;;5131508;27;20589;-39
2023/09/08 09:17:14;;;;;;;10.93;9.77;;;30.50;1.00;;;;;;5118978;27;20551;-37
2023/09/08 09:19:40;;;;;;;11.13;10.27;;;30.60;1.00;;;;;;5131149;27;20416;-37
2023/09/08 09:22:05;;;;;;;10.50;9.67;;;30.70;1.00;;;;;;5123313;27;20483;-37
2023/09/08 09:24:40;;;;;;;9.63;8.93;;;30.70;1.00;;;;;;5127978;27;20214;-39
2023/09/08 09:27:07;;;;;;;9.93;9.23;;;30.60;1.00;;;;;;5116079;27;20182;-37
2023/09/08 09:29:33;;;;;;;11.50;10.60;;;30.60;1.00;;;;;;5130150;27;20943;-39
2023/09/08 09:32:07;;;;;;;10.60;9.80;;;31.00;1.00;;;;;;5128557;27;21501;-39
2023/09/08 09:34:33;;;;;;;9.87;9.17;;;31.40;1.00;;;;;;5127029;27;20409;-38
2023/09/08 09:36:59;;;;;;;9.77;9.07;;;31.50;1.00;;;;;;5127460;27;20468;-36
2023/09/08 09:39:25;;;;;;;10.73;9.83;;;31.80;1.00;;;;;;5127121;27;20435;-37
2023/09/08 09:41:55;;;;;;;10.47;9.57;;;32.40;1.00;;;;;;5127422;27;20176;-37
2023/09/08 09:44:21;;;;;;;10.20;9.40;;;32.80;1.00;;;;;;5128045;27;20565;-37
2023/09/08 09:46:48;;;;;;;10.57;9.80;;;33.00;1.00;;;;;;5127130;27;20395;-38
2023/09/08 09:49:14;;;;;;;9.40;8.80;;;33.40;1.00;;;;;;5111888;27;20672;-34
2023/09/08 09:51:42;;;;;;;10.03;9.30;;;33.70;1.00;;;;;;5136513;27;20436;-35
2023/09/08 09:54:08;;;;;;;10.23;9.43;;;33.80;1.00;;;;;;5137063;27;20391;-34
2023/09/08 09:56:34;;;;;;;9.97;9.33;;;33.50;1.00;;;;;;5135924;27;20515;-35
2023/09/08 09:59:02;;;;;;;10.17;9.47;;;33.50;1.00;;;;;;5117009;27;20219;-35
2023/09/08 10:01:28;;;;;;;9.60;8.90;;;33.90;1.00;;;;;;5117615;27;20383;-35
2023/09/08 10:03:54;;;;;;;10.70;9.87;;;34.40;1.00;;;;;;5133627;27;20503;-35
2023/09/08 10:06:20;;;;;;;11.03;9.93;;;34.70;1.00;;;;;;5117950;27;20527;-42
2023/09/08 10:08:46;;;;;;;9.70;8.80;;;34.40;1.00;;;;;;5117359;27;20488;-42
2023/09/08 10:11:14;;;;;;;11.23;10.33;;;34.10;1.00;;;;;;5134831;27;20432;-43
2023/09/08 10:13:43;;;;;;;10.70;9.80;;;34.40;1.00;;;;;;5115849;27;20379;-43
2023/09/08 10:16:09;;;;;;;9.23;8.47;;;34.80;1.00;;;;;;5114880;27;20438;-44
2023/09/08 10:18:36;;;;;;;9.13;8.53;;;35.30;1.00;;;;;;5113962;27;20426;-44
2023/09/08 10:21:04;;;;;;;9.13;8.43;;;35.60;1.00;;;;;;5116004;27;20420;-42
2023/09/08 10:23:42;;;;;;;10.37;9.40;;;35.90;1.00;;;;;;5133166;27;20278;-44
2023/09/08 10:26:11;;;;;;;10.23;9.40;;;35.80;1.00;;;;;;5113824;27;20732;-43
2023/09/08 10:28:38;;;;;;;9.30;8.70;;;36.00;1.00;;;;;;5133318;27;20587;-43
2023/09/08 10:31:04;;;;;;;10.40;9.40;;;36.30;1.00;;;;;;5134330;27;20417;-43
2023/09/08 10:33:31;;;;;;;9.80;9.00;;;36.70;1.00;;;;;;5114906;27;20624;-42
2023/09/08 10:35:57;;;;;;;8.87;8.27;;;37.10;1.00;;;;;;5131355;27;20701;-42
2023/09/08 10:38:31;;;;;;;9.30;8.50;;;37.30;1.00;;;;;;5132104;27;20387;-43
2023/09/08 10:41:19;;;;;;;9.47;8.77;;;37.70;1.00;;;;;;5133201;27;20502;-43
2023/09/08 10:44:07;;;;;;;9.40;8.70;;;37.70;1.00;;;;;;5133744;27;20391;-44
2023/09/08 10:46:34;;;;;;;9.67;9.03;;;38.10;1.00;;;;;;5131415;27;20434;-43
2023/09/08 10:49:07;;;;;;;10.03;9.23;;;38.30;1.00;;;;;;5132393;27;20409;-43
2023/09/08 10:51:34;;;;;;;9.90;9.10;;;38.50;1.00;;;;;;5113660;27;20802;-43
2023/09/08 10:54:00;;;;;;;10.50;9.60;;;38.80;1.00;;;;;;5129066;27;20712;-44
2023/09/08 10:56:50;;;;;;;10.43;9.00;;;39.00;1.00;;;;;;5130742;27;20459;-42
2023/09/08 10:59:38;;;;;;;9.90;9.20;;;39.00;1.00;;;;;;5116542;27;20414;-42
2023/09/08 11:02:04;;;;;;;8.50;7.90;;;39.00;1.00;;;;;;5133277;27;20901;-42
2023/09/08 11:04:30;;;;;;;8.57;7.87;;;39.40;1.00;;;;;;5134466;27;20503;-42
2023/09/08 11:06:59;;;;;;;9.87;8.90;;;39.50;1.00;;;;;;5134293;27;20200;-42
2023/09/08 11:09:24;;;;;;;9.73;8.93;;;39.70;1.00;;;;;;5132582;27;20692;-42
2023/09/08 11:11:50;;;;;;;8.70;8.20;;;39.80;1.00;;;;;;5131488;27;20441;-42
2023/09/08 11:14:16;;;;;;;9.67;8.77;;;40.20;1.00;;;;;;5130627;27;20261;-42
2023/09/08 11:16:43;;;;;;;8.87;8.30;;;40.20;1.00;;;;;;5130805;27;20210;-42
2023/09/08 11:19:09;;;;;;;10.70;9.90;;;40.40;1.00;;;;;;5130991;27;20247;-42
2023/09/08 11:21:36;;;;;;;9.37;8.67;;;40.30;1.00;;;;;;5133084;28;20419;-42
2023/09/08 11:24:04;;;;;;;8.80;8.10;;;40.60;1.00;;;;;;5133518;28;20413;-41
2023/09/08 11:26:33;;;;;;;9.23;8.60;;;40.70;1.00;;;;;;5133449;28;20451;-42
2023/09/08 11:28:59;;;;;;;9.03;8.33;;;40.60;1.00;;;;;;5133339;28;20787;-42
2023/09/08 11:31:25;;;;;;;8.20;7.70;;;40.70;1.00;;;;;;5135395;28;20411;-43
2023/09/08 11:33:55;;;;;;;8.93;8.33;;;41.10;1.00;;;;;;5116294;27;20467;-43
2023/09/08 11:36:20;;;;;;;9.60;8.90;;;41.30;1.00;;;;;;5138598;27;20210;-42
2023/09/08 11:38:46;;;;;;;8.87;8.20;;;41.30;1.00;;;;;;5137006;27;20410;-42
2023/09/08 11:41:12;;;;;;;9.37;8.47;;;41.40;1.00;;;;;;5136486;27;20344;-43
2023/09/08 11:43:37;;;;;;;9.83;8.87;;;41.60;1.00;;;;;;5117647;27;20591;-42
2023/09/08 11:46:03;;;;;;;9.20;8.60;;;41.50;1.00;;;;;;5137794;27;20218;-42
2023/09/08 11:48:29;;;;;;;8.43;7.63;;;41.50;1.00;;;;;;5135229;27;20225;-43
2023/09/08 11:50:55;;;;;;;8.80;8.10;;;41.60;1.00;;;;;;5138897;27;20255;-44
2023/09/08 11:53:21;;;;;;;8.37;7.77;;;41.90;1.00;;;;;;5139170;27;20578;-43
2023/09/08 11:55:47;;;;;;;8.57;7.97;;;41.80;1.00;;;;;;5116940;27;20532;-44
2023/09/08 11:58:13;;;;;;;8.13;7.53;;;41.20;1.00;;;;;;5136337;27;20466;-44
2023/09/08 12:00:40;;;;;;;7.07;6.60;;;41.00;1.00;;;;;;5118986;27;20461;-43
2023/09/08 12:03:17;;;;;;;8.37;7.83;;;40.70;1.00;;;;;;5120019;27;20456;-43
2023/09/08 12:05:45;;;;;;;8.73;8.23;;;40.40;1.00;;;;;;5137386;27;20507;-43
2023/09/08 12:08:11;;;;;;;10.07;8.77;;;40.20;1.00;;;;;;5118561;27;20471;-42
2023/09/08 12:10:41;;;;;;;9.30;8.70;;;39.60;1.00;;;;;;5136601;27;20405;-42
2023/09/08 12:13:08;;;;;;;8.83;8.13;;;39.30;1.00;;;;;;5117603;27;20179;-42
2023/09/08 12:15:36;;;;;;;8.80;8.00;;;39.00;1.00;;;;;;5116856;27;20492;-42
2023/09/08 12:18:04;;;;;;;9.20;8.50;;;39.20;1.00;;;;;;5134033;27;20734;-43
2023/09/08 12:20:30;;;;;;;8.87;8.37;;;39.40;1.00;;;;;;5115950;27;20522;-43
2023/09/08 12:23:00;;;;;;;9.00;8.40;;;39.90;1.00;;;;;;5133284;27;21124;-43
2023/09/08 12:25:27;;;;;;;9.93;9.27;;;40.30;1.00;;;;;;5133935;27;20401;-42
2023/09/08 12:27:54;;;;;;;10.03;9.10;;;40.30;1.00;;;;;;5135286;27;20551;-42
2023/09/08 12:30:21;;;;;;;9.87;9.17;;;39.80;1.00;;;;;;5135559;27;20443;-42
2023/09/08 12:32:48;;;;;;;9.23;8.60;;;39.60;1.00;;;;;;5136183;27;20427;-42
2023/09/08 12:35:22;;;;;;;9.40;8.70;;;39.40;1.00;;;;;;5137969;27;20421;-42
2023/09/08 12:37:59;;;;;;;10.63;9.93;;;39.80;1.00;;;;;;5135705;27;20405;-42
2023/09/08 12:40:26;;;;;;;10.13;9.43;;;40.00;1.00;;;;;;5138107;27;20405;-42
2023/09/08 12:42:52;;;;;;;9.10;8.40;;;39.90;1.00;;;;;;5136314;27;20706;-41
2023/09/08 12:45:18;;;;;;;9.60;8.80;;;39.80;1.00;;;;;;5135190;27;20465;-42
2023/09/08 12:47:44;;;;;;;9.93;9.23;;;40.20;1.00;;;;;;5136157;27;20199;-43
2023/09/08 12:50:10;;;;;;;11.50;10.67;;;40.70;1.00;;;;;;5137400;27;20840;-41
2023/09/08 12:52:35;;;;;;;10.97;10.17;;;41.20;1.00;;;;;;5133396;27;20255;-42